DHX672 LOWW-LOWI
Flight info
| Callsign | DHX672 |
|---|---|
| Flight time | 0h 39m |
| Altitude | 30000 |
| Route | SOVIL1C/29 SOVIL DCT SITNI DCT BAGSI DCT NANIT NANIT2A |
| Aircraft | B738/M-SDE2E3FGHIRWXY/LB1 |
Departure
| Time | 2026-04-24 18:55 |
|---|---|
| Airport | Vienna International Airport (LOWW) |
Arrival
| Time | 2026-04-24 19:34 |
|---|---|
| Airport | Innsbruck Airport (LOWI) |
| Time | Latitude | Longitude | Altitude | Speed | Heading |
|---|---|---|---|---|---|
| 2026-04-24 18:54 | 48.10946 | 16.57438 | 601 ft | 0 kts | 294° |
| 2026-04-24 18:55 | 48.11257 | 16.56480 | 597 ft | 148 kts | 296° |
| 2026-04-24 18:55 | 48.11852 | 16.54766 | 987 ft | 211 kts | 296° |
| 2026-04-24 18:55 | 48.12334 | 16.52647 | 2348 ft | 233 kts | 271° |
| 2026-04-24 18:56 | 48.11895 | 16.50344 | 3816 ft | 250 kts | 240° |
| 2026-04-24 18:56 | 48.10907 | 16.48200 | 5081 ft | 263 kts | 237° |
| 2026-04-24 18:56 | 48.09785 | 16.45841 | 5176 ft | 289 kts | 237° |
| 2026-04-24 18:56 | 48.08603 | 16.43418 | 5048 ft | 283 kts | 236° |
| 2026-04-24 18:57 | 48.07458 | 16.41134 | 5027 ft | 267 kts | 236° |
| 2026-04-24 18:57 | 48.06362 | 16.38926 | 5088 ft | 261 kts | 236° |
| 2026-04-24 18:57 | 48.05281 | 16.36734 | 5497 ft | 266 kts | 237° |
| 2026-04-24 18:57 | 48.04168 | 16.34440 | 6276 ft | 282 kts | 240° |
| 2026-04-24 18:58 | 48.03373 | 16.31770 | 7128 ft | 283 kts | 259° |
| 2026-04-24 18:58 | 48.03208 | 16.28875 | 7995 ft | 285 kts | 272° |
| 2026-04-24 18:58 | 48.03274 | 16.25903 | 8855 ft | 287 kts | 275° |
| 2026-04-24 18:58 | 48.03350 | 16.22952 | 9711 ft | 291 kts | 274° |
| 2026-04-24 18:59 | 48.03412 | 16.19939 | 10571 ft | 297 kts | 274° |
| 2026-04-24 18:59 | 48.03469 | 16.16827 | 11441 ft | 303 kts | 274° |
| 2026-04-24 18:59 | 48.03524 | 16.13670 | 12309 ft | 309 kts | 274° |
| 2026-04-24 18:59 | 48.03579 | 16.10470 | 13173 ft | 314 kts | 274° |
| 2026-04-24 19:00 | 48.03632 | 16.07165 | 14051 ft | 320 kts | 274° |
| 2026-04-24 19:00 | 48.03685 | 16.03855 | 14917 ft | 326 kts | 274° |
| 2026-04-24 19:00 | 48.03733 | 16.00467 | 15787 ft | 330 kts | 274° |
| 2026-04-24 19:00 | 48.03784 | 15.97035 | 16658 ft | 336 kts | 274° |
| 2026-04-24 19:01 | 48.03834 | 15.93549 | 17530 ft | 340 kts | 273° |
| 2026-04-24 19:01 | 48.03883 | 15.89963 | 18417 ft | 345 kts | 274° |
| 2026-04-24 19:01 | 48.03932 | 15.86372 | 19295 ft | 349 kts | 274° |
| 2026-04-24 19:01 | 48.03978 | 15.82787 | 20166 ft | 352 kts | 273° |
| 2026-04-24 19:02 | 48.04020 | 15.79160 | 21044 ft | 353 kts | 273° |
| 2026-04-24 19:02 | 48.04066 | 15.75484 | 21933 ft | 354 kts | 273° |
| 2026-04-24 19:02 | 48.04116 | 15.71786 | 22829 ft | 354 kts | 273° |
| 2026-04-24 19:02 | 48.04166 | 15.68168 | 23641 ft | 355 kts | 273° |
| 2026-04-24 19:03 | 48.04214 | 15.64376 | 23998 ft | 370 kts | 273° |
| 2026-04-24 19:03 | 48.04259 | 15.60506 | 24074 ft | 383 kts | 273° |
| 2026-04-24 19:03 | 48.04300 | 15.56453 | 24081 ft | 394 kts | 273° |
| 2026-04-24 19:03 | 48.04340 | 15.52282 | 24083 ft | 405 kts | 273° |
| 2026-04-24 19:04 | 48.04374 | 15.48033 | 24084 ft | 414 kts | 272° |
| 2026-04-24 19:04 | 48.04409 | 15.43666 | 24084 ft | 423 kts | 272° |
| 2026-04-24 19:04 | 48.04446 | 15.39241 | 24176 ft | 428 kts | 272° |
| 2026-04-24 19:04 | 48.04491 | 15.34837 | 24651 ft | 429 kts | 272° |
| 2026-04-24 19:05 | 48.04552 | 15.30441 | 25515 ft | 423 kts | 273° |
| 2026-04-24 19:05 | 48.04619 | 15.26131 | 26487 ft | 414 kts | 273° |
| 2026-04-24 19:05 | 48.04690 | 15.21897 | 27467 ft | 404 kts | 274° |
| 2026-04-24 19:05 | 48.04764 | 15.17709 | 27969 ft | 407 kts | 274° |
| 2026-04-24 19:06 | 48.04839 | 15.13396 | 28070 ft | 420 kts | 274° |
| 2026-04-24 19:06 | 48.04910 | 15.08974 | 28079 ft | 434 kts | 273° |
| 2026-04-24 19:06 | 48.04974 | 15.04370 | 28075 ft | 448 kts | 273° |
| 2026-04-24 19:07 | 48.05085 | 14.94935 | 28066 ft | 461 kts | 273° |
| 2026-04-24 19:07 | 48.05182 | 14.85342 | 28068 ft | 459 kts | 273° |
| 2026-04-24 19:08 | 48.05271 | 14.75816 | 28069 ft | 465 kts | 273° |
| 2026-04-24 19:08 | 48.05341 | 14.66116 | 28068 ft | 466 kts | 273° |
| 2026-04-24 19:09 | 48.05401 | 14.56456 | 28069 ft | 466 kts | 273° |
| 2026-04-24 19:09 | 48.05461 | 14.46761 | 28068 ft | 467 kts | 273° |
| 2026-04-24 19:10 | 48.05521 | 14.37087 | 28067 ft | 466 kts | 273° |
| 2026-04-24 19:10 | 48.05035 | 14.27463 | 28061 ft | 473 kts | 257° |
| 2026-04-24 19:11 | 48.02405 | 14.18393 | 28067 ft | 480 kts | 244° |
| 2026-04-24 19:11 | 47.99308 | 14.09564 | 28066 ft | 480 kts | 244° |
| 2026-04-24 19:12 | 47.96232 | 14.00738 | 28070 ft | 480 kts | 245° |
| 2026-04-24 19:12 | 47.93222 | 13.91912 | 28074 ft | 479 kts | 245° |
| 2026-04-24 19:13 | 47.90722 | 13.84490 | 28077 ft | 479 kts | 245° |
| 2026-04-24 19:13 | 47.87237 | 13.74140 | 28081 ft | 479 kts | 246° |
| 2026-04-24 19:14 | 47.84251 | 13.65295 | 28083 ft | 479 kts | 245° |
| 2026-04-24 19:14 | 47.81264 | 13.56480 | 28083 ft | 479 kts | 245° |
| 2026-04-24 19:15 | 47.78265 | 13.47658 | 28082 ft | 479 kts | 246° |
| 2026-04-24 19:15 | 47.76749 | 13.43212 | 27845 ft | 481 kts | 245° |
| 2026-04-24 19:15 | 47.75237 | 13.38792 | 27195 ft | 477 kts | 245° |
| 2026-04-24 19:15 | 47.73764 | 13.34492 | 26325 ft | 471 kts | 245° |
| 2026-04-24 19:16 | 47.70838 | 13.25945 | 24557 ft | 459 kts | 244° |
| 2026-04-24 19:16 | 47.69407 | 13.21780 | 23669 ft | 453 kts | 244° |
| 2026-04-24 19:16 | 47.67990 | 13.17660 | 22781 ft | 447 kts | 244° |
| 2026-04-24 19:17 | 47.66571 | 13.13542 | 21889 ft | 441 kts | 245° |
| 2026-04-24 19:17 | 47.65198 | 13.09550 | 21024 ft | 430 kts | 245° |
| 2026-04-24 19:17 | 47.63877 | 13.05707 | 20179 ft | 419 kts | 245° |
| 2026-04-24 19:17 | 47.62576 | 13.01908 | 19420 ft | 407 kts | 245° |
| 2026-04-24 19:18 | 47.61324 | 12.98247 | 18672 ft | 397 kts | 245° |
| 2026-04-24 19:18 | 47.60108 | 12.94647 | 17986 ft | 386 kts | 246° |
| 2026-04-24 19:18 | 47.58928 | 12.91153 | 17362 ft | 374 kts | 246° |
| 2026-04-24 19:18 | 47.57768 | 12.87737 | 16736 ft | 364 kts | 246° |
| 2026-04-24 19:19 | 47.56649 | 12.84464 | 16120 ft | 355 kts | 246° |
| 2026-04-24 19:19 | 47.55548 | 12.81208 | 15495 ft | 347 kts | 248° |
| 2026-04-24 19:19 | 47.54582 | 12.78007 | 14879 ft | 339 kts | 250° |
| 2026-04-24 19:19 | 47.53677 | 12.74826 | 14261 ft | 332 kts | 251° |
| 2026-04-24 19:20 | 47.52804 | 12.71737 | 13647 ft | 326 kts | 251° |
| 2026-04-24 19:20 | 47.51934 | 12.68670 | 13027 ft | 321 kts | 251° |
| 2026-04-24 19:20 | 47.51074 | 12.65664 | 12415 ft | 316 kts | 251° |
| 2026-04-24 19:20 | 47.50259 | 12.62742 | 12129 ft | 300 kts | 252° |
| 2026-04-24 19:21 | 47.49477 | 12.59941 | 12098 ft | 285 kts | 252° |
| 2026-04-24 19:21 | 47.48718 | 12.57232 | 12097 ft | 291 kts | 252° |
| 2026-04-24 19:21 | 47.47940 | 12.54441 | 12093 ft | 293 kts | 252° |
| 2026-04-24 19:21 | 47.47221 | 12.51642 | 12091 ft | 292 kts | 253° |
| 2026-04-24 19:22 | 47.46477 | 12.48814 | 12091 ft | 293 kts | 253° |
| 2026-04-24 19:22 | 47.45731 | 12.46018 | 12095 ft | 293 kts | 253° |
| 2026-04-24 19:22 | 47.44987 | 12.43222 | 12097 ft | 293 kts | 253° |
| 2026-04-24 19:22 | 47.44255 | 12.40423 | 12099 ft | 293 kts | 254° |
| 2026-04-24 19:23 | 47.43546 | 12.37633 | 12101 ft | 292 kts | 254° |
| 2026-04-24 19:23 | 47.42831 | 12.34802 | 12103 ft | 292 kts | 253° |
| 2026-04-24 19:23 | 47.42124 | 12.31994 | 12104 ft | 293 kts | 253° |
| 2026-04-24 19:23 | 47.41405 | 12.29156 | 12105 ft | 293 kts | 253° |
| 2026-04-24 19:24 | 47.40694 | 12.26337 | 12106 ft | 293 kts | 253° |
| 2026-04-24 19:24 | 47.40007 | 12.23522 | 12106 ft | 292 kts | 254° |
| 2026-04-24 19:24 | 47.39330 | 12.20697 | 12107 ft | 292 kts | 254° |
| 2026-04-24 19:24 | 47.38658 | 12.17897 | 12108 ft | 292 kts | 254° |
| 2026-04-24 19:25 | 47.37997 | 12.15032 | 12110 ft | 291 kts | 256° |
| 2026-04-24 19:25 | 47.37390 | 12.12199 | 12113 ft | 291 kts | 256° |
| 2026-04-24 19:25 | 47.36778 | 12.09320 | 12032 ft | 290 kts | 256° |
| 2026-04-24 19:25 | 47.36177 | 12.06512 | 11773 ft | 288 kts | 256° |
| 2026-04-24 19:26 | 47.35743 | 12.04440 | 11397 ft | 286 kts | 257° |
| 2026-04-24 19:26 | 47.35183 | 12.01686 | 11088 ft | 275 kts | 257° |
| 2026-04-24 19:26 | 47.34671 | 11.99075 | 10888 ft | 261 kts | 259° |
| 2026-04-24 19:26 | 47.34213 | 11.96531 | 10420 ft | 259 kts | 260° |
| 2026-04-24 19:27 | 47.33788 | 11.93933 | 9751 ft | 263 kts | 264° |
| 2026-04-24 19:27 | 47.33821 | 11.91328 | 9405 ft | 247 kts | 281° |
| 2026-04-24 19:27 | 47.33826 | 11.88886 | 9366 ft | 233 kts | 265° |
| 2026-04-24 19:27 | 47.33414 | 11.86634 | 9361 ft | 220 kts | 253° |
| 2026-04-24 19:28 | 47.32881 | 11.84603 | 9353 ft | 200 kts | 263° |
| 2026-04-24 19:28 | 47.32726 | 11.82650 | 9360 ft | 189 kts | 270° |
| 2026-04-24 19:28 | 47.32539 | 11.80733 | 9363 ft | 190 kts | 266° |
| 2026-04-24 19:28 | 47.32295 | 11.78800 | 9358 ft | 193 kts | 266° |
| 2026-04-24 19:29 | 47.31722 | 11.74812 | 8688 ft | 207 kts | 264° |
| 2026-04-24 19:29 | 47.31435 | 11.72691 | 8217 ft | 212 kts | 264° |
| 2026-04-24 19:29 | 47.31139 | 11.70549 | 7751 ft | 216 kts | 263° |
| 2026-04-24 19:30 | 47.30835 | 11.68423 | 7506 ft | 209 kts | 263° |
| 2026-04-24 19:30 | 47.30546 | 11.66408 | 7482 ft | 193 kts | 263° |
| 2026-04-24 19:30 | 47.30278 | 11.64520 | 7455 ft | 186 kts | 264° |
| 2026-04-24 19:30 | 47.30007 | 11.62622 | 7173 ft | 193 kts | 263° |
| 2026-04-24 19:31 | 47.29719 | 11.60618 | 6587 ft | 206 kts | 263° |
| 2026-04-24 19:31 | 47.29417 | 11.58515 | 5972 ft | 218 kts | 262° |
| 2026-04-24 19:31 | 47.29094 | 11.56302 | 5511 ft | 220 kts | 261° |
| 2026-04-24 19:31 | 47.28784 | 11.54163 | 5230 ft | 214 kts | 261° |
| 2026-04-24 19:32 | 47.28470 | 11.51993 | 4728 ft | 220 kts | 260° |
| 2026-04-24 19:32 | 47.28154 | 11.49823 | 4519 ft | 210 kts | 260° |
| 2026-04-24 19:32 | 47.27862 | 11.47823 | 4376 ft | 189 kts | 260° |
| 2026-04-24 19:32 | 47.27581 | 11.45955 | 3774 ft | 193 kts | 256° |
| 2026-04-24 19:33 | 47.27137 | 11.44105 | 3288 ft | 188 kts | 252° |
| 2026-04-24 19:33 | 47.26827 | 11.42264 | 2779 ft | 187 kts | 260° |
| 2026-04-24 19:33 | 47.26633 | 11.40409 | 2435 ft | 178 kts | 263° |
| 2026-04-24 19:33 | 47.26476 | 11.38648 | 2168 ft | 173 kts | 263° |
| 2026-04-24 19:34 | 47.26281 | 11.36923 | 2045 ft | 168 kts | 262° |
| 2026-04-24 19:34 | 47.26117 | 11.35287 | 1919 ft | 155 kts | 260° |
| 2026-04-24 19:34 | 47.25968 | 11.33877 | 1931 ft | 121 kts | 260° |
| 2026-04-24 19:34 | 47.25864 | 11.33173 | 1939 ft | 19 kts | 230° |
| 2026-04-24 19:35 | 47.25871 | 11.33143 | 1939 ft | 11 kts | 40° |
| 2026-04-24 19:35 | 47.25911 | 11.33351 | 1942 ft | 32 kts | 85° |
| 2026-04-24 19:35 | 47.25903 | 11.33697 | 1937 ft | 36 kts | 123° |
| 2026-04-24 19:35 | 47.25770 | 11.34045 | 1926 ft | 38 kts | 86° |
| 2026-04-24 19:36 | 47.25802 | 11.34390 | 1920 ft | 34 kts | 82° |
| 2026-04-24 19:36 | 47.25841 | 11.34723 | 1917 ft | 35 kts | 81° |
| 2026-04-24 19:36 | 47.25867 | 11.34977 | 1915 ft | 14 kts | 82° |
| 2026-04-24 19:36 | 47.25834 | 11.35051 | 1914 ft | 7 kts | 160° |
| 2026-04-24 19:37 | 47.25826 | 11.35054 | 1914 ft | 0 kts | 172° |